createdAt,value
2022-09-16T00:01:14.221Z,19.53
2022-09-16T00:02:47.113Z,19.52
2022-09-16T00:04:19.150Z,19.55
2022-09-16T00:05:52.864Z,19.56
2022-09-16T00:07:24.990Z,19.49
2022-09-16T00:09:01.271Z,19.47
2022-09-16T00:10:33.370Z,19.39
2022-09-16T00:12:06.917Z,19.37
2022-09-16T00:13:39.116Z,19.32
2022-09-16T00:15:11.662Z,19.28
2022-09-16T00:16:43.698Z,19.21
2022-09-16T00:18:15.745Z,19.18
2022-09-16T00:19:47.859Z,19.13
2022-09-16T00:21:19.852Z,19.08
2022-09-16T00:22:51.981Z,19.04
2022-09-16T00:24:23.950Z,19.01
2022-09-16T00:25:56.080Z,18.99
2022-09-16T00:27:28.176Z,18.94
2022-09-16T00:29:00.236Z,18.94
2022-09-16T00:30:32.263Z,18.97
2022-09-16T00:32:04.342Z,18.99
2022-09-16T00:33:36.435Z,19.01
2022-09-16T00:35:08.687Z,19.04
2022-09-16T00:36:40.746Z,19.04
2022-09-16T00:38:13.533Z,19.05
2022-09-16T00:39:48.754Z,19.03
2022-09-16T00:41:28.057Z,19.02
2022-09-16T00:43:00.663Z,19.01
2022-09-16T00:45:00.731Z,19.02
2022-09-16T00:46:45.452Z,19.05
2022-09-16T00:48:21.376Z,19.04
2022-09-16T00:49:53.841Z,19.05
2022-09-16T00:51:25.820Z,19.06
2022-09-16T00:53:02.398Z,18.98
2022-09-16T00:54:35.981Z,19.08
2022-09-16T00:56:10.397Z,19.08
2022-09-16T00:57:42.723Z,19.06
2022-09-16T00:59:18.127Z,19.09
2022-09-16T01:00:51.089Z,19.11
2022-09-16T01:02:24.145Z,19.14
2022-09-16T01:03:58.258Z,19.15
2022-09-16T01:05:30.351Z,19.16
2022-09-16T01:07:02.488Z,19.16
2022-09-16T01:08:34.530Z,19.13
2022-09-16T01:10:07.006Z,19.12
2022-09-16T01:11:39.005Z,19.11
2022-09-16T01:13:13.209Z,19.12
2022-09-16T01:14:54.201Z,19.09
2022-09-16T01:16:33.215Z,19.16
2022-09-16T01:18:19.446Z,19.18
2022-09-16T01:20:09.867Z,19.23
2022-09-16T01:21:46.245Z,19.32
2022-09-16T01:23:54.083Z,19.38
2022-09-16T01:26:03.589Z,19.45
2022-09-16T01:28:07.717Z,19.48
2022-09-16T01:30:04.871Z,19.48
2022-09-16T01:31:36.892Z,19.46
2022-09-16T01:33:31.935Z,19.52
2022-09-16T01:35:10.690Z,19.53
2022-09-16T01:36:48.833Z,19.52
2022-09-16T01:40:19.651Z,19.54
2022-09-16T01:42:05.878Z,19.50
2022-09-16T01:44:09.584Z,19.50
2022-09-16T01:45:47.704Z,19.47
2022-09-16T01:47:46.719Z,19.54
2022-09-16T01:49:21.488Z,19.55
2022-09-16T01:51:01.378Z,19.57
2022-09-16T01:53:12.966Z,19.58
2022-09-16T01:55:04.086Z,19.57
2022-09-16T01:56:47.151Z,19.61
2022-09-16T01:58:21.936Z,19.57
2022-09-16T02:00:01.074Z,19.60
2022-09-16T02:01:53.009Z,19.61
2022-09-16T02:03:30.411Z,19.61
2022-09-16T02:05:06.803Z,19.64
2022-09-16T02:06:39.393Z,19.62
2022-09-16T02:09:52.238Z,19.68
2022-09-16T02:11:24.885Z,19.67
2022-09-16T02:13:04.811Z,19.74
2022-09-16T02:14:41.570Z,19.79
2022-09-16T02:16:31.918Z,19.84
2022-09-16T02:18:11.305Z,19.84
2022-09-16T02:20:02.520Z,19.86
2022-09-16T02:21:38.891Z,19.84
2022-09-16T02:23:21.908Z,19.84
2022-09-16T02:24:54.031Z,19.76
2022-09-16T02:26:30.576Z,19.78
2022-09-16T02:28:05.888Z,19.80
2022-09-16T02:29:47.765Z,19.86
2022-09-16T02:31:26.057Z,19.93
2022-09-16T02:33:02.729Z,19.99
2022-09-16T02:34:44.248Z,20.06
2022-09-16T02:36:21.745Z,20.10
2022-09-16T02:38:05.054Z,20.16
2022-09-16T02:39:39.732Z,20.18
2022-09-16T02:41:15.050Z,20.26
2022-09-16T02:44:26.671Z,20.32
2022-09-16T02:46:26.316Z,20.38
2022-09-16T02:48:05.631Z,20.38
2022-09-16T02:49:56.677Z,20.36
2022-09-16T02:51:58.448Z,20.35
2022-09-16T02:53:46.726Z,20.36
2022-09-16T02:55:23.491Z,20.39
2022-09-16T02:56:56.387Z,20.40
2022-09-16T02:58:28.400Z,20.41
2022-09-16T03:00:00.362Z,20.41
2022-09-16T03:01:34.490Z,20.43
2022-09-16T03:03:06.628Z,20.45
2022-09-16T03:04:38.760Z,20.47
2022-09-16T03:06:15.449Z,20.47
2022-09-16T03:07:47.492Z,20.45
2022-09-16T03:09:26.745Z,20.43
2022-09-16T03:11:04.768Z,20.45
2022-09-16T03:12:53.927Z,20.38
2022-09-16T03:14:44.645Z,20.30
2022-09-16T03:16:23.185Z,20.26
2022-09-16T03:18:21.769Z,20.24
2022-09-16T03:19:59.892Z,20.23
2022-09-16T03:22:30.651Z,20.28
2022-09-16T03:24:10.027Z,20.32
2022-09-16T03:25:51.933Z,20.34
2022-09-16T03:27:32.290Z,20.35
2022-09-16T03:29:36.685Z,20.36
2022-09-16T03:31:14.070Z,20.37
2022-09-16T03:32:59.128Z,20.38
2022-09-16T03:34:36.447Z,20.37
2022-09-16T03:36:10.169Z,20.37
2022-09-16T03:37:42.505Z,20.28
2022-09-16T03:39:14.917Z,20.23
2022-09-16T03:40:48.035Z,20.16
2022-09-16T03:42:21.516Z,20.08
2022-09-16T03:44:03.537Z,20.03
2022-09-16T03:45:36.157Z,19.99
2022-09-16T03:47:08.936Z,19.99
2022-09-16T03:48:40.896Z,19.98
2022-09-16T03:50:13.016Z,19.97
2022-09-16T03:51:45.050Z,19.96
2022-09-16T03:53:17.206Z,19.98
2022-09-16T03:54:49.239Z,20.00
2022-09-16T03:56:23.508Z,20.04
2022-09-16T03:57:56.092Z,20.06
2022-09-16T03:59:28.950Z,20.11
2022-09-16T04:01:01.118Z,20.15
2022-09-16T04:02:33.512Z,20.20
2022-09-16T04:04:05.868Z,20.22
2022-09-16T04:05:37.885Z,20.24
2022-09-16T04:07:09.862Z,20.31
2022-09-16T04:08:44.537Z,20.41
2022-09-16T04:10:16.680Z,20.50
2022-09-16T04:11:48.867Z,20.52
2022-09-16T04:13:20.966Z,20.48
2022-09-16T04:14:53.036Z,20.43
2022-09-16T04:18:02.353Z,20.49
2022-09-16T04:19:34.476Z,20.47
2022-09-16T04:21:06.597Z,20.45
2022-09-16T04:22:38.595Z,20.42
2022-09-16T04:24:13.154Z,20.40
2022-09-16T04:25:45.582Z,20.40
2022-09-16T04:27:17.607Z,20.39
2022-09-16T04:28:49.726Z,20.40
2022-09-16T04:30:22.312Z,20.40
2022-09-16T04:31:55.546Z,20.40
2022-09-16T04:33:28.436Z,20.41
2022-09-16T04:35:00.495Z,20.36
2022-09-16T04:36:34.162Z,20.35
2022-09-16T04:38:06.489Z,20.36
2022-09-16T04:39:38.495Z,20.37
2022-09-16T04:41:14.967Z,20.40
2022-09-16T04:42:50.821Z,20.45
2022-09-16T04:44:22.832Z,20.45
2022-09-16T04:47:29.666Z,20.52
2022-09-16T04:49:01.819Z,20.55
2022-09-16T04:50:33.906Z,20.71
2022-09-16T04:52:06.124Z,20.98
2022-09-16T04:53:39.879Z,21.25
2022-09-16T04:55:11.901Z,21.44
2022-09-16T04:56:43.865Z,21.67
2022-09-16T04:58:16.115Z,21.86
2022-09-16T04:59:48.158Z,22.10
2022-09-16T05:01:22.711Z,22.32
2022-09-16T05:02:55.245Z,22.49
2022-09-16T05:04:27.520Z,22.66
2022-09-16T05:06:07.609Z,22.93
2022-09-16T05:07:40.187Z,23.04
2022-09-16T05:09:13.008Z,23.22
2022-09-16T05:10:45.052Z,23.37
2022-09-16T05:12:17.136Z,23.52
2022-09-16T05:13:49.236Z,23.63
2022-09-16T05:15:21.781Z,23.76
2022-09-16T05:16:54.352Z,23.81
2022-09-16T05:18:26.386Z,23.84
2022-09-16T05:19:58.920Z,23.91
2022-09-16T05:21:34.311Z,23.95
2022-09-16T05:23:06.995Z,23.98
2022-09-16T05:24:39.228Z,24.02
2022-09-16T05:26:17.167Z,24.08
2022-09-16T05:27:49.489Z,24.11
2022-09-16T05:29:22.447Z,24.12
2022-09-16T05:30:54.934Z,24.20
2022-09-16T05:32:28.051Z,24.28
2022-09-16T05:34:02.507Z,24.33
2022-09-16T05:35:34.740Z,24.33
2022-09-16T05:37:07.115Z,24.37
2022-09-16T05:38:39.456Z,24.38
2022-09-16T05:40:11.703Z,24.41
2022-09-16T05:41:43.950Z,24.44
2022-09-16T05:43:16.383Z,24.46
2022-09-16T05:44:48.505Z,24.48
2022-09-16T05:46:22.181Z,24.50
2022-09-16T05:47:54.672Z,24.49
2022-09-16T05:49:27.068Z,24.47
2022-09-16T05:51:01.809Z,24.46
2022-09-16T05:52:33.804Z,24.41
2022-09-16T05:54:05.849Z,24.38
2022-09-16T05:55:38.051Z,24.36
2022-09-16T05:57:10.097Z,24.31
2022-09-16T05:58:43.032Z,24.29
2022-09-16T06:00:16.017Z,24.27
2022-09-16T06:01:48.207Z,24.25
2022-09-16T06:03:20.257Z,24.23
2022-09-16T06:04:52.970Z,24.22
2022-09-16T06:06:36.356Z,24.23
2022-09-16T06:08:08.781Z,24.19
2022-09-16T06:09:42.180Z,24.19
2022-09-16T06:11:14.537Z,24.19
2022-09-16T06:12:47.128Z,24.18
2022-09-16T06:14:23.373Z,24.18
2022-09-16T06:15:55.534Z,24.19
2022-09-16T06:17:27.858Z,24.20
2022-09-16T06:19:05.276Z,24.25
2022-09-16T06:20:37.316Z,24.25
2022-09-16T06:22:09.630Z,24.28
2022-09-16T06:23:41.762Z,24.30
2022-09-16T06:25:13.902Z,24.32
2022-09-16T06:26:46.910Z,24.36
2022-09-16T06:28:19.048Z,24.38
2022-09-16T06:29:51.102Z,24.41
2022-09-16T06:31:25.436Z,24.44
2022-09-16T06:32:57.996Z,24.45
2022-09-16T06:34:30.214Z,24.49
2022-09-16T06:36:10.876Z,24.55
2022-09-16T06:37:42.803Z,24.56
2022-09-16T06:39:16.312Z,24.62
2022-09-16T06:40:49.541Z,24.63
2022-09-16T06:42:21.354Z,24.76
2022-09-16T06:43:53.491Z,24.75
2022-09-16T06:47:03.914Z,24.86
2022-09-16T06:48:36.371Z,24.93
2022-09-16T06:50:08.809Z,24.99
2022-09-16T06:51:40.975Z,25.04
2022-09-16T06:53:13.027Z,25.09
2022-09-16T06:54:45.156Z,25.17
2022-09-16T06:56:19.335Z,25.26
2022-09-16T06:57:51.530Z,25.31
2022-09-16T06:59:23.735Z,25.39
2022-09-16T07:00:56.804Z,25.50
2022-09-16T07:02:29.472Z,25.59
2022-09-16T07:04:10.988Z,25.62
2022-09-16T07:05:43.194Z,25.62
2022-09-16T07:07:15.926Z,25.66
2022-09-16T07:08:48.258Z,25.70
2022-09-16T07:10:20.649Z,25.76
2022-09-16T07:11:52.742Z,25.81
2022-09-16T07:13:25.260Z,25.85
2022-09-16T07:14:57.284Z,25.93
2022-09-16T07:16:29.678Z,25.99
2022-09-16T07:18:02.283Z,26.01
2022-09-16T07:19:34.427Z,26.05
2022-09-16T07:21:21.726Z,26.15
2022-09-16T07:22:55.173Z,26.13
2022-09-16T07:24:27.593Z,26.17
2022-09-16T07:26:12.527Z,26.24
2022-09-16T07:27:44.679Z,26.25
2022-09-16T07:29:21.920Z,26.32
2022-09-16T07:30:54.345Z,26.33
2022-09-16T07:32:26.694Z,26.29
2022-09-16T07:34:04.329Z,26.33
2022-09-16T07:35:36.896Z,26.34
2022-09-16T07:37:09.406Z,26.36
2022-09-16T07:38:41.617Z,26.40
2022-09-16T07:40:14.282Z,26.46
2022-09-16T07:41:48.908Z,26.51
2022-09-16T07:43:21.434Z,26.54
2022-09-16T07:44:53.702Z,26.59
2022-09-16T07:46:30.292Z,26.62
2022-09-16T07:48:03.304Z,26.64
2022-09-16T07:49:35.441Z,26.64
2022-09-16T07:51:13.221Z,26.67
2022-09-16T07:54:37.275Z,26.61
2022-09-16T07:56:13.182Z,26.60
2022-09-16T07:57:45.654Z,26.57
2022-09-16T07:59:19.839Z,26.58
2022-09-16T08:00:51.976Z,26.56
2022-09-16T08:02:24.303Z,26.51
2022-09-16T08:03:56.820Z,26.55
2022-09-16T08:05:29.134Z,26.59
2022-09-16T08:07:01.214Z,26.61
2022-09-16T08:08:36.063Z,26.67
2022-09-16T08:10:08.407Z,26.70
2022-09-16T08:11:41.062Z,26.74
2022-09-16T08:13:13.299Z,26.80
2022-09-16T08:14:45.325Z,26.83
2022-09-16T08:16:20.009Z,26.92
2022-09-16T08:17:52.091Z,26.89
2022-09-16T08:19:24.206Z,26.91
2022-09-16T08:20:56.368Z,26.98
2022-09-16T08:22:28.362Z,27.01
2022-09-16T08:24:00.510Z,27.05
2022-09-16T08:25:33.328Z,27.08
2022-09-16T08:27:05.642Z,27.15
2022-09-16T08:28:50.926Z,27.22
2022-09-16T08:30:23.341Z,27.23
2022-09-16T08:31:55.848Z,27.29
2022-09-16T08:33:28.915Z,27.29
2022-09-16T08:35:01.040Z,27.34
2022-09-16T08:36:36.313Z,27.32
2022-09-16T08:38:08.252Z,27.34
2022-09-16T08:39:41.429Z,27.36
2022-09-16T08:41:32.390Z,27.42
2022-09-16T08:43:40.709Z,27.44
2022-09-16T08:45:24.974Z,27.48
2022-09-16T08:47:02.608Z,27.44
2022-09-16T08:48:40.584Z,27.45
2022-09-16T08:50:25.039Z,27.48
2022-09-16T08:51:59.742Z,27.48
2022-09-16T08:53:45.173Z,27.55
2022-09-16T08:55:26.248Z,27.54
2022-09-16T08:57:01.619Z,27.54
2022-09-16T08:58:43.189Z,27.50
2022-09-16T09:00:18.128Z,27.49
2022-09-16T09:02:03.981Z,27.47
2022-09-16T09:03:41.423Z,27.46
2022-09-16T09:06:52.091Z,27.44
2022-09-16T09:08:27.306Z,27.51
2022-09-16T09:10:25.192Z,27.50
2022-09-16T09:12:00.355Z,27.48
2022-09-16T09:14:00.766Z,27.58
2022-09-16T09:15:38.873Z,27.58
2022-09-16T09:17:21.920Z,27.64
2022-09-16T09:19:15.217Z,27.71
2022-09-16T09:21:15.245Z,27.75
2022-09-16T09:22:56.818Z,27.72
2022-09-16T09:24:53.445Z,27.74
2022-09-16T09:26:42.627Z,27.80
2022-09-16T09:28:40.112Z,27.84
2022-09-16T09:30:26.600Z,27.84
2022-09-16T09:31:58.857Z,27.86
2022-09-16T09:36:06.742Z,27.87
2022-09-16T09:37:41.652Z,27.92
2022-09-16T09:39:43.045Z,27.94
2022-09-16T09:41:40.724Z,27.96
2022-09-16T09:43:18.821Z,27.91
2022-09-16T09:45:28.256Z,28.00
2022-09-16T09:47:05.304Z,28.00
2022-09-16T09:48:58.605Z,28.01
2022-09-16T09:50:37.452Z,27.99
2022-09-16T09:52:23.961Z,27.98
2022-09-16T09:54:02.827Z,27.93
2022-09-16T09:55:36.152Z,27.87
2022-09-16T09:57:30.148Z,27.82
2022-09-16T09:59:20.905Z,27.83
2022-09-16T10:00:59.023Z,27.73
2022-09-16T10:02:31.454Z,27.65
2022-09-16T10:04:04.415Z,27.59
2022-09-16T10:05:36.765Z,27.56
2022-09-16T10:07:09.674Z,27.49
2022-09-16T10:08:49.584Z,27.45
2022-09-16T10:10:27.332Z,27.36
2022-09-16T10:12:00.037Z,27.29
2022-09-16T10:13:32.481Z,27.23
2022-09-16T10:15:05.468Z,27.17
2022-09-16T10:16:38.652Z,27.19
2022-09-16T10:18:30.713Z,27.20
2022-09-16T10:20:07.249Z,27.18
2022-09-16T10:21:48.002Z,27.13
2022-09-16T10:23:29.075Z,27.16
2022-09-16T10:25:24.751Z,27.14
2022-09-16T10:27:00.393Z,27.11
2022-09-16T10:28:33.675Z,27.02
2022-09-16T10:30:15.701Z,27.08
2022-09-16T10:31:48.705Z,27.03
2022-09-16T10:33:25.310Z,27.02
2022-09-16T10:34:57.890Z,26.99
2022-09-16T10:36:34.205Z,26.99
2022-09-16T10:38:39.008Z,26.97
2022-09-16T10:40:17.151Z,26.95
2022-09-16T10:41:50.765Z,26.91
2022-09-16T10:43:23.562Z,26.89
2022-09-16T10:45:02.645Z,26.88
2022-09-16T10:46:34.758Z,26.81
2022-09-16T10:48:14.772Z,26.80
2022-09-16T10:49:50.299Z,26.77
2022-09-16T10:51:27.897Z,26.74
2022-09-16T10:53:00.131Z,26.70
2022-09-16T10:54:32.559Z,26.68
2022-09-16T10:56:07.126Z,26.66
2022-09-16T10:57:44.926Z,26.62
2022-09-16T10:59:17.791Z,26.61
2022-09-16T11:01:06.082Z,26.60
2022-09-16T11:02:54.205Z,26.58
2022-09-16T11:04:41.712Z,26.57
2022-09-16T11:06:45.743Z,26.57
2022-09-16T11:08:39.476Z,26.58
2022-09-16T11:10:38.559Z,26.62
2022-09-16T11:12:16.821Z,26.64
2022-09-16T11:13:55.295Z,26.61
2022-09-16T11:15:36.525Z,26.62
2022-09-16T11:17:21.506Z,26.65
2022-09-16T11:19:02.318Z,26.65
2022-09-16T11:20:37.694Z,26.63
2022-09-16T11:22:32.460Z,26.62
2022-09-16T11:24:27.455Z,26.60
2022-09-16T11:26:05.697Z,26.53
2022-09-16T11:27:46.181Z,26.53
2022-09-16T11:29:39.573Z,26.47
2022-09-16T11:31:30.217Z,26.36
2022-09-16T11:34:56.418Z,26.14
2022-09-16T11:36:42.776Z,26.03
2022-09-16T11:38:27.009Z,25.95
2022-09-16T11:40:20.373Z,25.90
2022-09-16T11:42:05.477Z,25.80
2022-09-16T11:44:03.698Z,25.76
2022-09-16T11:46:01.040Z,25.62
2022-09-16T11:47:53.259Z,25.52
2022-09-16T11:49:34.373Z,25.48
2022-09-16T11:51:45.599Z,25.47
2022-09-16T11:53:42.304Z,25.42
2022-09-16T11:55:47.790Z,25.36
2022-09-16T11:57:25.426Z,25.26
2022-09-16T11:59:13.787Z,25.18
2022-09-16T12:00:47.789Z,25.11
2022-09-16T12:04:21.073Z,25.06
2022-09-16T12:05:55.137Z,25.07
2022-09-16T12:07:27.154Z,25.07
2022-09-16T12:09:14.773Z,24.99
2022-09-16T12:10:50.542Z,24.98
2022-09-16T12:12:38.825Z,24.94
2022-09-16T12:14:15.905Z,24.89
2022-09-16T12:16:00.327Z,24.83
2022-09-16T12:17:35.128Z,24.79
2022-09-16T12:19:23.075Z,24.80
2022-09-16T12:21:14.900Z,24.81
2022-09-16T12:22:52.042Z,24.81
2022-09-16T12:24:27.676Z,24.83
2022-09-16T12:26:13.616Z,24.88
2022-09-16T12:27:53.088Z,24.90
2022-09-16T12:29:48.972Z,24.96
2022-09-16T12:33:08.368Z,25.02
2022-09-16T12:34:49.941Z,25.03
2022-09-16T12:36:29.854Z,25.01
2022-09-16T12:38:02.577Z,24.99
2022-09-16T12:39:35.006Z,24.99
2022-09-16T12:41:23.007Z,25.03
2022-09-16T12:43:46.406Z,24.96
2022-09-16T12:45:49.427Z,24.91
2022-09-16T12:47:39.579Z,24.83
2022-09-16T12:49:29.748Z,24.85
2022-09-16T12:51:23.011Z,24.91
2022-09-16T12:53:31.869Z,24.93
2022-09-16T12:55:25.765Z,24.97
2022-09-16T12:57:19.885Z,24.99
2022-09-16T12:59:10.479Z,24.99
2022-09-16T13:01:10.469Z,25.02
2022-09-16T13:02:51.195Z,25.04
2022-09-16T13:04:31.600Z,25.05
2022-09-16T13:06:07.982Z,25.05
2022-09-16T13:07:40.887Z,25.07
2022-09-16T13:09:25.967Z,25.07
2022-09-16T13:11:20.021Z,25.04
2022-09-16T13:12:53.209Z,25.01
2022-09-16T13:14:48.147Z,24.95
2022-09-16T13:16:37.431Z,25.00
2022-09-16T13:18:15.757Z,25.00
2022-09-16T13:19:52.150Z,25.01
2022-09-16T13:21:29.986Z,25.02
2022-09-16T13:23:27.921Z,25.09
2022-09-16T13:25:23.119Z,25.15
2022-09-16T13:26:55.904Z,25.14
2022-09-16T13:28:38.726Z,25.18
2022-09-16T13:30:13.573Z,25.16
2022-09-16T13:33:29.131Z,25.28
2022-09-16T13:35:04.914Z,25.30
2022-09-16T13:36:37.216Z,25.33
2022-09-16T13:38:15.222Z,25.42
2022-09-16T13:39:50.322Z,25.45
2022-09-16T13:41:43.383Z,25.53
2022-09-16T13:43:15.995Z,25.55
2022-09-16T13:44:51.077Z,25.58
2022-09-16T13:46:38.801Z,25.65
2022-09-16T13:48:23.697Z,25.68
2022-09-16T13:50:22.711Z,25.71
2022-09-16T13:51:55.376Z,25.70
2022-09-16T13:53:31.748Z,25.72
2022-09-16T13:55:11.985Z,25.73
2022-09-16T13:56:56.226Z,25.76
2022-09-16T13:58:39.394Z,25.80
2022-09-16T14:02:02.514Z,25.85
2022-09-16T14:03:53.781Z,25.85
2022-09-16T14:05:38.568Z,25.94
2022-09-16T14:07:42.164Z,25.98
2022-09-16T14:09:37.663Z,26.00
2022-09-16T14:11:18.028Z,26.03
2022-09-16T14:13:12.300Z,26.03
2022-09-16T14:14:48.094Z,26.01
2022-09-16T14:16:24.525Z,26.03
2022-09-16T14:18:00.006Z,26.03
2022-09-16T17:43:58.793Z,24.44
2022-09-16T17:45:33.540Z,24.43
2022-09-16T17:47:05.983Z,24.38
2022-09-16T17:48:39.233Z,24.35
2022-09-16T17:50:11.395Z,24.38
2022-09-16T17:51:44.370Z,24.32
2022-09-16T17:53:16.959Z,24.30
2022-09-16T17:54:49.402Z,24.24
2022-09-16T17:56:21.810Z,24.22
2022-09-16T17:57:54.325Z,24.16
2022-09-16T17:59:26.713Z,24.10
2022-09-16T18:01:05.818Z,24.07
2022-09-16T18:02:38.581Z,24.00
2022-09-16T18:04:11.503Z,23.96
2022-09-16T18:05:45.031Z,23.94
2022-09-16T18:07:19.741Z,23.95
2022-09-16T18:08:52.813Z,23.90
2022-09-16T18:10:25.136Z,23.86
2022-09-16T18:11:59.022Z,23.75
2022-09-16T18:13:31.931Z,23.64
2022-09-16T18:15:05.423Z,23.53
2022-09-16T18:16:38.002Z,23.37
2022-09-16T18:18:11.039Z,23.28
2022-09-16T18:19:43.292Z,23.24
2022-09-16T18:21:18.392Z,23.24
2022-09-16T18:22:50.870Z,23.19
2022-09-16T18:24:23.155Z,23.12
2022-09-16T18:25:56.617Z,23.03
2022-09-16T18:27:28.968Z,22.97
2022-09-16T18:29:11.173Z,22.89
2022-09-16T18:31:06.458Z,22.82
2022-09-16T18:32:38.768Z,22.73
2022-09-16T18:34:11.741Z,22.70
2022-09-16T18:35:44.096Z,22.62
2022-09-16T18:37:16.651Z,22.50
2022-09-16T18:38:54.381Z,22.32
2022-09-16T18:40:27.140Z,22.13
2022-09-16T18:41:59.677Z,21.99
2022-09-16T18:43:32.233Z,21.88
2022-09-16T18:45:07.793Z,21.81
2022-09-16T18:46:40.460Z,21.73
2022-09-16T18:48:12.694Z,21.71
2022-09-16T18:49:45.000Z,21.70
2022-09-16T18:51:21.741Z,21.74
2022-09-16T18:52:54.005Z,21.72
2022-09-16T18:54:30.658Z,21.73
2022-09-16T18:56:03.249Z,21.76
2022-09-16T18:57:35.670Z,21.75
2022-09-16T18:59:26.836Z,21.79
2022-09-16T19:01:27.137Z,21.74
2022-09-16T19:02:59.871Z,21.67
2022-09-16T19:04:37.260Z,21.58
2022-09-16T19:06:09.632Z,21.45
2022-09-16T19:07:41.940Z,21.34
2022-09-16T19:09:16.755Z,21.29
2022-09-16T19:10:49.082Z,21.21
2022-09-16T19:12:21.332Z,21.20
2022-09-16T19:13:53.980Z,21.18
2022-09-16T19:15:26.539Z,21.18
2022-09-16T19:16:58.742Z,21.15
2022-09-16T19:18:31.101Z,21.10
2022-09-16T19:20:04.613Z,21.04
2022-09-16T19:21:37.486Z,20.98
2022-09-16T19:23:09.751Z,20.97
2022-09-16T19:24:43.909Z,20.92
2022-09-16T19:26:16.604Z,20.89
2022-09-16T19:27:48.933Z,20.86
2022-09-16T19:29:21.747Z,20.87
2022-09-16T19:30:57.505Z,20.90
2022-09-16T19:32:29.864Z,20.92
2022-09-16T19:34:02.603Z,20.92
2022-09-16T19:35:35.270Z,20.91
2022-09-16T19:37:07.669Z,20.88
2022-09-16T19:38:40.469Z,20.89
2022-09-16T19:40:12.852Z,20.88
2022-09-16T19:41:45.660Z,20.87
2022-09-16T19:43:18.310Z,20.84
2022-09-16T19:44:50.948Z,20.81
2022-09-16T19:47:56.325Z,20.68
2022-09-16T19:49:29.308Z,20.64
2022-09-16T19:51:06.898Z,20.62
2022-09-16T19:52:41.551Z,20.55
2022-09-16T19:54:14.014Z,20.47
2022-09-16T19:55:46.787Z,20.39
2022-09-16T19:57:19.504Z,20.34
2022-09-16T19:58:52.950Z,20.31
2022-09-16T20:00:41.308Z,20.27
2022-09-16T20:02:17.670Z,20.22
2022-09-16T20:03:50.107Z,20.24
2022-09-16T20:05:22.858Z,20.25
2022-09-16T20:06:54.906Z,20.28
2022-09-16T20:08:26.987Z,20.30
2022-09-16T20:09:59.259Z,20.28
2022-09-16T20:11:33.879Z,20.32
2022-09-16T20:13:08.954Z,20.27
2022-09-16T20:14:41.357Z,20.22
2022-09-16T20:16:14.669Z,20.21
2022-09-16T20:17:46.544Z,20.24
2022-09-16T20:19:20.316Z,20.19
2022-09-16T20:20:52.726Z,20.14
2022-09-16T20:22:24.990Z,20.06
2022-09-16T20:23:57.258Z,20.09
2022-09-16T20:25:30.231Z,20.10
2022-09-16T20:27:02.567Z,20.10
2022-09-16T20:28:43.175Z,20.11
2022-09-16T20:30:15.265Z,20.13
2022-09-16T20:31:49.411Z,20.17
2022-09-16T20:33:21.832Z,20.16
2022-09-16T20:34:54.094Z,20.18
2022-09-16T20:36:27.809Z,20.19
2022-09-16T20:37:59.834Z,20.21
2022-09-16T20:39:32.260Z,20.23
2022-09-16T20:41:21.284Z,20.22
2022-09-16T20:42:53.218Z,20.12
2022-09-16T20:44:25.340Z,20.04
2022-09-16T20:45:57.593Z,19.97
2022-09-16T20:47:30.936Z,19.92
2022-09-16T20:49:03.714Z,19.95
2022-09-16T20:50:40.119Z,19.91
2022-09-16T20:52:12.164Z,19.89
2022-09-16T20:53:45.184Z,19.94
2022-09-16T20:55:17.231Z,19.96
2022-09-16T20:56:49.778Z,19.96
2022-09-16T20:58:21.786Z,19.94
2022-09-16T20:59:53.761Z,19.90
2022-09-16T21:01:31.968Z,19.88
2022-09-16T21:03:04.274Z,19.81
2022-09-16T21:04:36.258Z,19.80
2022-09-16T21:06:13.480Z,19.83
2022-09-16T21:07:45.849Z,19.81
2022-09-16T21:09:19.506Z,19.79
2022-09-16T21:10:54.309Z,19.75
2022-09-16T21:12:26.347Z,19.69
2022-09-16T21:14:17.529Z,19.67
2022-09-16T21:17:23.020Z,19.47
2022-09-16T21:18:56.218Z,19.51
2022-09-16T21:20:28.289Z,19.43
2022-09-16T21:22:00.314Z,19.39
2022-09-16T21:23:33.461Z,19.35
2022-09-16T21:25:06.020Z,19.33
2022-09-16T21:26:39.640Z,19.33
2022-09-16T21:28:11.807Z,19.29
2022-09-16T21:29:43.889Z,19.21
2022-09-16T21:31:16.653Z,19.19
2022-09-16T21:32:48.717Z,19.15
2022-09-16T21:34:22.147Z,19.13
2022-09-16T21:35:54.879Z,19.13
2022-09-16T21:37:26.984Z,19.07
2022-09-16T21:39:01.856Z,19.05
2022-09-16T21:40:38.980Z,19.02
2022-09-16T21:42:11.765Z,19.02
2022-09-16T21:43:49.978Z,19.00
2022-09-16T21:45:22.672Z,18.97
2022-09-16T21:46:54.696Z,18.95
2022-09-16T21:48:27.929Z,18.98
2022-09-16T21:50:01.201Z,19.04
2022-09-16T21:51:37.142Z,19.00
2022-09-16T21:53:09.298Z,18.93
2022-09-16T21:54:41.373Z,18.92
2022-09-16T21:56:21.415Z,18.94
2022-09-16T21:57:53.540Z,18.95
2022-09-16T21:59:25.621Z,18.95
2022-09-16T22:01:11.578Z,18.98
2022-09-16T22:02:43.880Z,18.92
2022-09-16T22:04:21.514Z,18.92
2022-09-16T22:05:53.551Z,18.86
2022-09-16T22:07:28.680Z,18.85
2022-09-16T22:09:02.376Z,18.82
2022-09-16T22:10:34.483Z,18.82
2022-09-16T22:12:07.198Z,18.84
2022-09-16T22:13:39.429Z,18.84
2022-09-16T22:15:11.469Z,18.86
2022-09-16T22:16:43.554Z,18.90
2022-09-16T22:18:15.631Z,18.89
2022-09-16T22:19:48.098Z,18.91
2022-09-16T22:21:20.688Z,18.86
2022-09-16T22:22:52.850Z,18.91
2022-09-16T22:24:24.932Z,18.90
2022-09-16T22:25:56.977Z,18.90
2022-09-16T22:27:30.039Z,18.90
2022-09-16T22:29:02.096Z,18.92
2022-09-16T22:30:34.839Z,18.90
2022-09-16T22:32:06.868Z,18.91
2022-09-16T22:33:41.026Z,18.95
2022-09-16T22:35:14.160Z,18.99
2022-09-16T22:36:46.476Z,19.01
2022-09-16T22:38:18.405Z,19.03
2022-09-16T22:39:50.414Z,19.04
2022-09-16T22:41:23.056Z,19.03
2022-09-16T22:42:56.363Z,19.01
2022-09-16T22:44:28.145Z,19.04
2022-09-16T22:46:08.176Z,19.02
2022-09-16T22:47:40.281Z,18.99
2022-09-16T22:50:57.758Z,18.96
2022-09-16T22:52:31.669Z,18.98
2022-09-16T22:54:03.939Z,18.94
2022-09-16T22:55:35.891Z,18.93
2022-09-16T22:57:07.854Z,18.96
2022-09-16T23:01:21.592Z,19.04
2022-09-16T23:02:53.866Z,19.05
2022-09-16T23:04:27.725Z,19.06
2022-09-16T23:06:01.853Z,19.09
2022-09-16T23:07:34.119Z,19.09
2022-09-16T23:09:07.847Z,19.11
2022-09-16T23:10:39.851Z,19.11
2022-09-16T23:12:12.714Z,19.11
2022-09-16T23:13:45.622Z,19.11
2022-09-16T23:15:17.642Z,19.11
2022-09-16T23:16:49.789Z,19.12
2022-09-16T23:18:21.835Z,19.11
2022-09-16T23:19:54.794Z,19.07
2022-09-16T23:21:27.892Z,19.12
2022-09-16T23:23:00.156Z,19.11
2022-09-16T23:24:32.171Z,19.10
2022-09-16T23:26:06.243Z,19.11
2022-09-16T23:27:39.555Z,19.08
2022-09-16T23:29:12.554Z,19.13
2022-09-16T23:30:44.536Z,19.07
2022-09-16T23:32:18.920Z,19.07
2022-09-16T23:33:51.052Z,19.04
2022-09-16T23:35:23.341Z,19.01
2022-09-16T23:36:58.374Z,19.02
2022-09-16T23:38:30.667Z,19.01
2022-09-16T23:40:03.774Z,19.04
2022-09-16T23:41:36.152Z,19.06
2022-09-16T23:43:09.829Z,19.09
2022-09-16T23:44:41.807Z,19.11
2022-09-16T23:46:15.470Z,19.12
2022-09-16T23:47:47.658Z,19.12
2022-09-16T23:49:20.599Z,19.14
2022-09-16T23:50:52.741Z,19.17
2022-09-16T23:52:24.990Z,19.20
2022-09-16T23:53:58.026Z,19.23
2022-09-16T23:55:31.254Z,19.24
2022-09-16T23:57:03.312Z,19.24
2022-09-16T23:58:35.576Z,19.24
